Time;durP1;ratioP1;P1;durP2;ratioP2;P2;SDS_P1;SDS_P2;PMS_P1;PMS_P2;Temp;Humidity;BMP_temperature;BMP_pressure;BME280_temperature;BME280_humidity;BME280_pressure;Samples;Min_cycle;Max_cycle;Signal;HPM_P1;HPM_P2
2021/12/07 00:00:11;;;;;;;;;4.00;2.00;;;;;8.20;66.80;100830.09;5011031;28;45794;-73
2021/12/07 00:02:37;;;;;;;;;5.25;2.50;;;;;8.24;66.89;100834.50;5005889;28;45876;-73
2021/12/07 00:05:03;;;;;;;;;2.00;2.00;;;;;8.27;66.74;100853.69;5011012;28;45546;-71
2021/12/07 00:07:30;;;;;;;;;3.50;2.00;;;;;8.36;66.94;100881.66;5011356;28;45501;-70
2021/12/07 00:09:58;;;;;;;;;2.50;1.50;;;;;8.35;66.54;100877.28;5007541;28;45575;-71
2021/12/07 00:12:35;;;;;;;;;1.75;1.75;;;;;7.94;66.75;100801.06;5012519;28;45440;-72
2021/12/07 00:15:03;;;;;;;;;2.00;1.50;;;;;8.34;66.37;100870.31;5012551;28;46520;-73
2021/12/07 00:17:31;;;;;;;;;3.00;1.50;;;;;8.40;66.13;100874.75;5012108;28;45666;-74
2021/12/07 00:20:01;;;;;;;;;3.50;1.75;;;;;8.17;66.18;100838.78;4999091;28;45921;-72
2021/12/07 00:22:27;;;;;;;;;4.00;1.00;;;;;8.34;65.80;100862.47;4996577;28;45806;-75
2021/12/07 00:24:53;;;;;;;;;3.50;1.00;;;;;7.57;66.06;100746.69;5026701;28;45821;-71
2021/12/07 00:27:19;;;;;;;;;2.25;2.25;;;;;8.04;66.04;100805.53;5011019;28;45483;-73
2021/12/07 00:29:47;;;;;;;;;2.75;1.50;;;;;8.37;65.91;100862.50;5009624;28;45506;-70
2021/12/07 00:32:26;;;;;;;;;2.00;1.25;;;;;8.28;65.73;100855.47;5012611;28;45572;-70
2021/12/07 00:37:54;;;;;;;;;1.75;1.75;;;;;8.35;65.62;100877.28;5009326;28;45529;-72
2021/12/07 00:40:30;;;;;;;;;3.00;1.00;;;;;8.42;65.63;100883.47;5028546;28;45570;-72
2021/12/07 00:42:56;;;;;;;;;2.25;2.00;;;;;8.34;65.67;100870.31;5007825;28;46172;-70
2021/12/07 00:45:25;;;;;;;;;1.75;1.75;;;;;8.44;65.47;100881.78;4996063;28;47494;-75
2021/12/07 00:47:53;;;;;;;;;6.00;2.00;;;;;8.44;65.64;100894.81;5011848;28;45548;-72
2021/12/07 00:50:22;;;;;;;;;1.50;1.50;;;;;8.33;65.27;100879.00;5009029;28;45770;-72
2021/12/07 00:52:49;;;;;;;;;2.50;1.00;;;;;8.11;65.42;100830.84;5010732;28;45652;-73
2021/12/07 00:55:20;;;;;;;;;3.50;2.00;;;;;8.33;64.82;100858.13;5013564;28;45819;-73
2021/12/07 00:57:51;;;;;;;;;2.25;1.00;;;;;8.36;64.99;100872.94;5012363;28;45830;-73
2021/12/07 01:00:17;;;;;;;;;2.00;0.00;;;;;8.40;64.74;100885.19;5012411;28;45815;-73
2021/12/07 01:02:43;;;;;;;;;2.00;1.00;;;;;8.41;65.07;100890.44;5014388;28;45649;-73
2021/12/07 01:05:19;;;;;;;;;2.00;0.00;;;;;8.40;64.49;100886.09;5011789;28;45442;-70
2021/12/07 01:26:37;;;;;;;;;0.00;0.00;;;;;8.40;62.57;100887.81;5022394;28;45589;-74
2021/12/07 01:29:03;;;;;;;;;0.00;0.00;;;;;8.34;62.57;100874.66;5011532;28;45851;-73
2021/12/07 01:31:55;;;;;;;;;0.00;0.00;;;;;7.44;62.47;100716.94;5028475;28;45878;-72
2021/12/07 01:39:58;;;;;;;;;0.25;0.00;;;;;8.31;62.87;100887.66;5017052;28;45903;-72
2021/12/07 01:47:47;;;;;;;;;1.00;0.00;;;;;8.25;63.13;100904.09;5018964;28;45583;-72
2021/12/07 01:50:29;;;;;;;;;1.50;0.00;;;;;8.17;63.46;100906.59;5022595;28;45663;-74
2021/12/07 01:53:08;;;;;;;;;0.25;0.25;;;;;7.60;63.81;100795.38;5014108;28;45772;-70
2021/12/07 02:00:50;;;;;;;;;2.00;0.50;;;;;8.08;63.77;100894.28;5010827;28;45505;-73
2021/12/07 02:03:16;;;;;;;;;1.75;1.00;;;;;8.09;63.93;100895.16;5011747;28;45295;-72
2021/12/07 02:05:42;;;;;;;;;1.75;1.00;;;;;8.01;64.04;100889.84;5010987;28;45914;-71
2021/12/07 02:08:08;;;;;;;;;0.25;0.00;;;;;8.01;64.18;100887.22;5010893;28;46280;-70
2021/12/07 02:10:35;;;;;;;;;1.00;1.00;;;;;8.08;64.10;100893.44;5011590;28;45480;-70
2021/12/07 02:13:17;;;;;;;;;0.50;0.00;;;;;8.08;64.17;100904.72;5011305;28;45545;-70
2021/12/07 02:15:43;;;;;;;;;1.00;1.00;;;;;8.13;64.32;100912.63;5011196;28;45469;-71
2021/12/07 02:18:09;;;;;;;;;1.00;1.00;;;;;8.02;64.35;100883.78;5010405;28;45701;-70
2021/12/07 02:20:35;;;;;;;;;1.00;1.00;;;;;7.97;64.55;100876.72;5025749;28;45955;-73
2021/12/07 02:23:00;;;;;;;;;1.75;0.00;;;;;8.17;64.33;100913.56;5009242;28;45606;-70
2021/12/07 02:25:28;;;;;;;;;2.25;1.50;;;;;8.16;64.05;100917.91;5010580;28;45876;-71
2021/12/07 02:27:54;;;;;;;;;1.25;1.00;;;;;7.95;64.47;100900.19;5010775;28;46216;-70
2021/12/07 02:30:24;;;;;;;;;2.00;0.75;;;;;8.13;64.26;100925.66;5011400;28;45788;-71
2021/12/07 02:32:52;;;;;;;;;1.00;1.00;;;;;8.10;64.28;100928.25;5011618;28;45733;-71
2021/12/07 02:35:25;;;;;;;;;1.25;1.00;;;;;7.87;64.46;100891.38;5011741;28;45981;-71
2021/12/07 02:37:53;;;;;;;;;0.75;0.75;;;;;7.97;64.37;100906.31;5011303;28;46610;-71
2021/12/07 02:40:19;;;;;;;;;2.25;1.00;;;;;8.08;64.39;100927.34;5011304;28;45462;-71
2021/12/07 02:42:46;;;;;;;;;0.75;0.75;;;;;7.88;63.86;100893.13;5010318;28;45800;-71
2021/12/07 02:45:12;;;;;;;;;1.00;1.00;;;;;8.06;64.60;100924.69;5010476;28;45562;-71
2021/12/07 02:47:38;;;;;;;;;1.25;0.00;;;;;7.81;64.35;100873.91;5010366;28;46386;-73
2021/12/07 02:50:05;;;;;;;;;1.50;0.00;;;;;7.93;64.42;100901.91;5010185;28;45772;-73
2021/12/07 02:52:31;;;;;;;;;0.50;0.50;;;;;7.88;64.28;100900.06;5024256;28;45867;-71
2021/12/07 02:54:57;;;;;;;;;2.00;0.00;;;;;7.97;64.63;100913.25;5010120;28;45880;-71
2021/12/07 02:57:23;;;;;;;;;1.25;0.75;;;;;8.02;64.32;100924.63;5009745;28;45655;-71
2021/12/07 02:59:58;;;;;;;;;1.50;1.00;;;;;7.90;64.21;100904.47;5010145;28;45916;-73
2021/12/07 03:02:24;;;;;;;;;0.50;0.50;;;;;7.94;64.54;100914.06;5010231;28;45435;-71
2021/12/07 03:05:03;;;;;;;;;0.25;0.00;;;;;7.92;64.56;100927.94;5010078;28;45525;-70
2021/12/07 03:26:47;;;;;;;;;3.00;1.00;;;;;7.19;65.90;100858.97;5009893;28;45908;-71
2021/12/07 03:29:12;;;;;;;;;4.75;1.00;;;;;7.58;66.09;100932.63;5009529;28;45662;-71
2021/12/07 03:31:38;;;;;;;;;5.50;3.00;;;;;7.32;65.67;100891.31;5009537;28;45515;-70
2021/12/07 03:34:04;;;;;;;;;2.00;1.00;;;;;7.59;66.03;100945.69;5009271;28;45733;-70
2021/12/07 03:36:30;;;;;;;;;3.75;1.50;;;;;7.50;65.92;100940.31;5009086;28;45804;-70
2021/12/07 03:38:56;;;;;;;;;4.50;2.00;;;;;7.55;65.99;100953.41;5008615;28;45978;-71
2021/12/07 03:41:22;;;;;;;;;2.00;2.00;;;;;7.45;66.43;100952.38;5008634;28;45721;-70
2021/12/07 03:43:50;;;;;;;;;3.00;1.00;;;;;7.31;66.25;100925.16;5007816;28;45674;-71
2021/12/07 03:46:17;;;;;;;;;3.00;1.00;;;;;7.16;66.14;100903.19;5009205;28;45651;-71
2021/12/07 03:48:42;;;;;;;;;2.00;0.75;;;;;7.42;66.63;100926.25;5008384;28;45751;-71
2021/12/07 03:51:09;;;;;;;;;1.75;1.50;;;;;7.44;66.15;100924.53;5024430;28;45568;-71
2021/12/07 03:53:35;;;;;;;;;2.00;1.00;;;;;7.30;66.78;100913.88;5008957;28;45527;-71
2021/12/07 03:56:05;;;;;;;;;1.50;1.50;;;;;7.41;66.64;100950.56;5009470;28;45929;-71
2021/12/07 03:58:32;;;;;;;;;1.50;1.00;;;;;7.47;66.48;100950.66;5009095;28;45775;-73
2021/12/07 04:00:58;;;;;;;;;1.00;1.00;;;;;7.37;65.96;100928.75;5009278;28;45783;-73
2021/12/07 04:03:24;;;;;;;;;3.00;1.50;;;;;7.44;66.02;100937.56;5010695;28;45736;-73
2021/12/07 04:05:55;;;;;;;;;2.50;1.00;;;;;7.44;66.40;100930.63;5027000;28;45389;-72
2021/12/07 04:08:26;;;;;;;;;0.50;0.00;;;;;7.43;66.17;100928.88;5012333;28;46694;-74
2021/12/07 04:10:54;;;;;;;;;3.75;1.00;;;;;7.29;65.78;100908.66;5012806;28;45851;-73
2021/12/07 04:13:22;;;;;;;;;1.00;1.00;;;;;7.32;65.93;100909.56;5013400;28;45704;-74
2021/12/07 04:15:49;;;;;;;;;1.00;0.75;;;;;7.41;66.46;100929.72;5030491;28;45417;-72
2021/12/07 04:18:14;;;;;;;;;2.75;1.75;;;;;7.12;66.34;100888.38;5016386;28;45714;-73
2021/12/07 04:20:40;;;;;;;;;1.00;1.00;;;;;7.38;66.38;100940.06;5014800;28;45758;-73
2021/12/07 04:23:06;;;;;;;;;3.00;1.00;;;;;7.35;66.31;100948.69;5014345;28;45809;-73
2021/12/07 04:25:32;;;;;;;;;1.00;0.25;;;;;7.34;66.01;100943.47;5014498;28;45480;-73
2021/12/07 04:27:58;;;;;;;;;3.00;2.25;;;;;7.30;66.49;100937.31;5029829;28;45864;-74
2021/12/07 04:30:30;;;;;;;;;4.75;1.75;;;;;7.09;66.03;100903.06;5014218;28;45910;-73
2021/12/07 04:32:58;;;;;;;;;1.25;1.00;;;;;7.10;66.29;100918.72;5014217;28;45582;-73
2021/12/07 04:35:26;;;;;;;;;3.50;2.00;;;;;6.97;66.50;100901.97;5014512;28;45579;-70
2021/12/07 04:37:53;;;;;;;;;3.00;1.25;;;;;7.03;66.38;100909.03;5013214;28;45766;-69
2021/12/07 04:40:22;;;;;;;;;3.00;1.00;;;;;7.07;66.07;100917.78;5011975;28;45562;-72
2021/12/07 04:42:49;;;;;;;;;2.00;1.00;;;;;7.04;66.43;100907.31;5012222;28;45631;-70
2021/12/07 04:59:06;;;;;;;;;1.50;1.50;;;;;6.91;66.40;100914.00;5012996;28;45854;-71
2021/12/07 05:01:33;;;;;;;;;4.25;3.00;;;;;6.98;66.87;100928.91;5012144;28;45754;-72
2021/12/07 05:04:04;;;;;;;;;3.00;2.00;;;;;6.87;66.99;100907.84;5011358;28;45629;-72
2021/12/07 05:06:32;;;;;;;;;4.75;3.25;;;;;6.83;66.59;100911.22;5010866;28;45928;-72
2021/12/07 05:09:05;;;;;;;;;1.00;1.00;;;;;6.90;66.87;100920.91;5010740;28;46216;-72
2021/12/07 05:11:45;;;;;;;;;4.00;2.00;;;;;6.90;67.15;100909.63;5011351;28;45553;-72
2021/12/07 05:14:17;;;;;;;;;3.75;2.25;;;;;6.88;67.04;100921.75;5011529;28;46034;-70
2021/12/07 05:16:56;;;;;;;;;2.00;2.00;;;;;6.88;66.78;100914.84;5011796;28;45865;-71
2021/12/07 05:24:37;;;;;;;;;4.25;2.25;;;;;6.60;67.17;100882.16;5011229;28;45462;-73
2021/12/07 05:40:15;;;;;;;;;4.25;3.00;;;;;6.53;68.27;100943.59;5011229;28;46188;-71
2021/12/07 05:42:41;;;;;;;;;3.00;3.00;;;;;6.46;68.16;100939.09;5009080;28;45565;-71
2021/12/07 05:45:16;;;;;;;;;0.00;0.00;;;;;6.43;68.73;100941.66;5011011;28;45815;-72
2021/12/07 05:47:43;;;;;;;;;7.75;3.00;;;;;6.39;68.83;100925.94;5010946;28;45450;-71
2021/12/07 05:50:12;;;;;;;;;4.75;4.75;;;;;6.45;68.79;100923.44;5008938;28;46904;-73
2021/12/07 05:52:37;;;;;;;;;2.50;2.50;;;;;6.49;68.48;100928.75;5010975;28;45811;-73
2021/12/07 05:55:04;;;;;;;;;7.50;4.00;;;;;6.47;68.54;100935.66;5010293;28;45490;-72
2021/12/07 05:57:30;;;;;;;;;6.25;4.25;;;;;6.58;68.34;100941.97;5010208;28;45509;-73
2021/12/07 05:59:55;;;;;;;;;4.75;4.00;;;;;6.46;67.98;100928.69;5010603;28;45698;-71
2021/12/07 06:02:21;;;;;;;;;4.75;4.75;;;;;6.44;67.97;100919.09;5010506;28;45379;-73
2021/12/07 06:04:47;;;;;;;;;5.00;3.50;;;;;6.56;68.00;100938.44;5010537;28;45743;-72
2021/12/07 06:07:12;;;;;;;;;7.25;5.50;;;;;6.65;67.66;100948.19;5010541;28;45774;-73
2021/12/07 06:09:38;;;;;;;;;3.50;3.00;;;;;6.33;68.19;100917.13;5011126;28;45759;-72
2021/12/07 06:12:04;;;;;;;;;6.00;4.00;;;;;6.44;68.31;100934.72;5011569;28;45762;-74
2021/12/07 06:14:34;;;;;;;;;6.00;5.25;;;;;6.38;68.10;100917.22;5010774;28;45889;-73
2021/12/07 06:17:00;;;;;;;;;7.75;5.50;;;;;6.62;68.60;100945.53;5010514;28;45950;-73
2021/12/07 06:19:25;;;;;;;;;9.25;5.00;;;;;6.58;68.21;100934.16;5010059;28;46274;-72
2021/12/07 06:21:51;;;;;;;;;10.75;6.75;;;;;6.59;67.78;100929.81;5010309;28;46199;-74
2021/12/07 06:24:17;;;;;;;;;6.25;5.00;;;;;6.57;68.27;100932.41;5010615;28;45350;-70
2021/12/07 06:26:43;;;;;;;;;11.25;6.75;;;;;6.20;68.59;100867.44;5010737;28;45719;-72
2021/12/07 06:29:08;;;;;;;;;9.25;6.00;;;;;6.43;68.12;100907.81;5010200;28;46022;-71
2021/12/07 06:31:34;;;;;;;;;8.75;7.00;;;;;6.19;68.44;100863.91;5010264;28;45358;-72
2021/12/07 06:34:01;;;;;;;;;7.00;6.50;;;;;6.36;68.69;100900.72;5010067;28;45527;-73
2021/12/07 06:36:27;;;;;;;;;10.00;6.75;;;;;6.34;68.70;100900.69;5024667;28;45714;-71
2021/12/07 06:38:52;;;;;;;;;9.00;9.00;;;;;6.25;69.17;100884.88;5009495;28;45857;-71
2021/12/07 06:41:19;;;;;;;;;10.00;6.00;;;;;6.27;69.02;100880.59;5009416;28;45475;-73
2021/12/07 06:43:44;;;;;;;;;14.25;11.00;;;;;6.33;68.86;100891.09;5025471;28;45494;-74
2021/12/07 06:46:10;;;;;;;;;12.25;9.00;;;;;5.85;69.40;100838.88;5009908;28;45566;-72
2021/12/07 06:48:38;;;;;;;;;10.00;10.00;;;;;5.91;70.06;100876.28;5009860;28;45579;-73
2021/12/07 06:51:04;;;;;;;;;10.50;9.00;;;;;6.12;69.78;100901.03;5005713;28;45485;-74
2021/12/07 06:53:35;;;;;;;;;9.50;9.25;;;;;6.09;69.83;100890.56;5009938;28;45744;-75
2021/12/07 06:56:06;;;;;;;;;17.25;11.50;;;;;6.06;69.80;100891.38;4992194;28;45771;-73
2021/12/07 06:58:32;;;;;;;;;14.00;11.00;;;;;5.69;69.65;100833.31;5010055;28;45893;-73
2021/12/07 07:00:58;;;;;;;;;13.25;9.75;;;;;5.70;69.83;100813.41;5009839;28;45832;-71
2021/12/07 07:03:24;;;;;;;;;15.00;10.75;;;;;5.43;70.31;100766.88;5009598;28;45828;-73
2021/12/07 07:05:50;;;;;;;;;11.50;11.00;;;;;5.82;70.63;100862.19;5009986;28;45471;-73
2021/12/07 07:08:15;;;;;;;;;18.25;14.25;;;;;5.82;70.72;100873.47;5008860;28;46526;-74
2021/12/07 07:10:42;;;;;;;;;23.00;15.25;;;;;5.70;71.59;100850.66;5007996;28;45450;-72
2021/12/07 07:13:08;;;;;;;;;18.75;15.50;;;;;5.69;71.40;100869.69;5009811;28;45755;-73
2021/12/07 07:15:34;;;;;;;;;26.75;18.00;;;;;5.57;71.83;100847.75;5010242;28;45512;-73
2021/12/07 07:18:00;;;;;;;;;21.25;17.50;;;;;5.52;71.91;100838.09;4991651;28;46390;-74
2021/12/07 07:20:27;;;;;;;;;22.00;17.25;;;;;5.72;71.65;100859.38;5010038;28;45605;-73
2021/12/07 07:22:53;;;;;;;;;21.75;16.75;;;;;5.52;71.94;100822.50;5009244;28;45961;-75
2021/12/07 07:25:20;;;;;;;;;20.00;17.00;;;;;5.78;72.14;100852.56;5009908;28;45919;-72
2021/12/07 07:27:46;;;;;;;;;21.00;18.00;;;;;5.74;72.10;100842.13;5009773;28;46671;-73
2021/12/07 07:30:15;;;;;;;;;18.25;17.00;;;;;5.74;72.44;100846.41;5025303;28;45501;-73
2021/12/07 07:32:41;;;;;;;;;28.50;19.75;;;;;5.72;72.06;100840.31;5009908;28;45803;-75
2021/12/07 07:35:09;;;;;;;;;20.00;19.00;;;;;5.52;72.59;100811.25;5010650;28;45861;-73
2021/12/07 07:37:35;;;;;;;;;20.75;17.25;;;;;5.46;72.66;100798.13;5009564;28;46193;-72
2021/12/07 07:40:04;;;;;;;;;23.25;18.25;;;;;5.61;72.71;100819.28;5009785;28;45414;-74
2021/12/07 07:42:30;;;;;;;;;19.50;18.00;;;;;5.10;73.05;100742.75;5009855;28;45789;-73
2021/12/07 07:44:56;;;;;;;;;23.50;16.00;;;;;5.49;73.08;100816.38;5011190;28;45477;-74
2021/12/07 07:47:22;;;;;;;;;21.50;20.75;;;;;5.09;73.14;100742.69;4992269;28;46742;-74
2021/12/07 07:49:47;;;;;;;;;26.25;20.00;;;;;5.50;72.89;100803.44;5019219;28;45577;-75
2021/12/07 07:52:14;;;;;;;;;22.00;19.00;;;;;5.44;73.13;100785.09;5026070;28;45476;-75
2021/12/07 07:54:39;;;;;;;;;21.50;20.25;;;;;5.24;72.75;100760.34;4993535;28;45542;-71
2021/12/07 07:57:05;;;;;;;;;25.25;19.00;;;;;5.38;73.20;100804.84;4992864;28;46553;-70
2021/12/07 07:59:36;;;;;;;;;24.25;18.00;;;;;5.34;73.17;100808.22;5005364;28;45602;-75
2021/12/07 08:02:03;;;;;;;;;24.50;19.25;;;;;4.75;73.74;100725.44;5012772;28;46009;-74
2021/12/07 08:04:28;;;;;;;;;28.00;20.25;;;;;5.04;73.27;100765.94;5012532;28;45501;-72
2021/12/07 08:06:54;;;;;;;;;24.25;19.50;;;;;4.73;73.82;100701.16;5011391;28;45874;-71
2021/12/07 08:09:20;;;;;;;;;28.75;24.25;;;;;5.03;74.01;100777.19;5011895;28;45776;-72
2021/12/07 08:11:45;;;;;;;;;23.75;20.75;;;;;4.86;74.85;100752.50;5012695;28;45879;-72
2021/12/07 08:14:11;;;;;;;;;24.00;20.50;;;;;4.84;74.58;100749.00;5012137;28;45441;-71
2021/12/07 08:16:38;;;;;;;;;30.50;23.75;;;;;4.81;74.43;100762.75;5011597;28;45521;-73
2021/12/07 08:19:04;;;;;;;;;27.75;22.50;;;;;4.94;74.69;100774.34;5011595;28;45859;-73
2021/12/07 08:21:30;;;;;;;;;26.25;16.50;;;;;4.98;74.26;100777.91;5011639;28;46008;-71
2021/12/07 08:23:57;;;;;;;;;26.50;21.75;;;;;4.77;74.05;100723.72;4993166;28;45939;-71
2021/12/07 08:26:24;;;;;;;;;21.00;20.25;;;;;4.86;74.12;100739.53;4993545;28;47237;-71
2021/12/07 08:28:51;;;;;;;;;24.00;20.25;;;;;4.99;73.70;100746.78;5026277;28;45451;-71
2021/12/07 08:31:18;;;;;;;;;27.00;20.50;;;;;5.03;73.89;100745.13;5011489;28;45573;-71
2021/12/07 08:33:44;;;;;;;;;26.25;21.00;;;;;5.06;74.92;100753.91;5012108;28;45552;-72
2021/12/07 08:36:09;;;;;;;;;24.25;20.25;;;;;4.61;75.21;100684.44;5015098;28;46431;-73
2021/12/07 08:38:35;;;;;;;;;24.25;21.75;;;;;4.96;75.48;100757.09;5015442;28;46005;-70
2021/12/07 08:41:00;;;;;;;;;23.25;18.25;;;;;4.77;74.34;100723.72;5015790;28;46342;-73
2021/12/07 08:43:29;;;;;;;;;20.75;18.00;;;;;4.83;75.14;100737.72;5015262;28;45336;-73
2021/12/07 08:45:57;;;;;;;;;18.25;13.75;;;;;4.80;75.09;100731.59;5014166;28;46169;-72
2021/12/07 08:48:24;;;;;;;;;19.50;17.50;;;;;4.83;74.69;100758.50;5016664;28;45849;-72
2021/12/07 08:50:50;;;;;;;;;15.25;15.00;;;;;4.74;75.19;100736.63;5015782;28;45677;-72
2021/12/07 08:53:17;;;;;;;;;18.75;15.75;;;;;4.41;75.52;100678.75;4996028;28;45821;-71
2021/12/07 09:01:19;;;;;;;;;22.50;19.75;;;;;4.77;75.84;100721.13;5011493;28;45719;-72
2021/12/07 09:03:45;;;;;;;;;21.25;19.50;;;;;4.75;76.76;100712.44;5012338;28;45927;-72
2021/12/07 09:06:11;;;;;;;;;21.00;19.75;;;;;4.55;77.17;100681.66;5011773;28;46141;-73
2021/12/07 09:08:40;;;;;;;;;20.00;18.75;;;;;4.66;77.16;100701.00;5011243;28;45519;-73
2021/12/07 09:11:07;;;;;;;;;19.00;14.00;;;;;4.69;77.58;100674.25;5011984;28;45518;-75
2021/12/07 09:13:34;;;;;;;;;21.75;17.00;;;;;4.69;77.72;100669.06;5026869;28;45489;-72
2021/12/07 09:16:00;;;;;;;;;23.50;16.00;;;;;4.45;77.35;100620.91;5011847;28;46292;-75
2021/12/07 09:18:27;;;;;;;;;19.50;18.00;;;;;4.68;77.18;100637.03;5011233;28;45717;-74
2021/12/07 09:20:54;;;;;;;;;19.00;17.00;;;;;4.45;76.83;100596.69;5010915;28;45859;-74
2021/12/07 09:23:27;;;;;;;;;20.75;16.50;;;;;4.66;77.05;100617.97;5008022;28;45544;-73
2021/12/07 09:25:54;;;;;;;;;19.25;18.25;;;;;4.80;77.14;100620.03;4992463;28;47809;-73
2021/12/07 09:28:20;;;;;;;;;20.75;18.25;;;;;4.79;77.55;100611.38;5010354;28;46011;-74
2021/12/07 09:30:51;;;;;;;;;23.00;20.50;;;;;4.58;76.51;100575.41;5010771;28;45431;-75
2021/12/07 09:33:18;;;;;;;;;21.00;19.25;;;;;4.81;77.92;100630.41;5026615;28;46091;-74
2021/12/07 09:35:44;;;;;;;;;21.50;18.75;;;;;4.75;76.93;100624.22;4993262;28;46914;-73
2021/12/07 09:38:11;;;;;;;;;19.25;14.25;;;;;4.62;77.42;100594.50;4992935;28;45718;-74
2021/12/07 09:40:38;;;;;;;;;14.50;14.25;;;;;4.76;76.96;100624.25;5011124;28;45857;-74
2021/12/07 09:43:04;;;;;;;;;17.50;15.25;;;;;4.94;76.94;100629.00;5011389;28;45524;-75
2021/12/07 09:45:31;;;;;;;;;16.75;15.25;;;;;4.82;76.44;100610.56;5010363;28;45523;-75
2021/12/07 09:48:02;;;;;;;;;15.50;14.25;;;;;4.91;75.88;100602.97;5010743;28;45915;-72
2021/12/07 09:50:29;;;;;;;;;15.25;14.00;;;;;5.10;75.81;100638.00;5010561;28;45761;-73
2021/12/07 09:52:55;;;;;;;;;20.50;17.75;;;;;5.05;76.37;100631.84;5034990;28;45487;-74
2021/12/07 09:55:21;;;;;;;;;24.00;19.75;;;;;4.73;76.79;100574.88;5030365;28;46698;-73
2021/12/07 09:57:48;;;;;;;;;17.00;15.00;;;;;4.78;76.88;100578.47;5026221;28;45470;-74
2021/12/07 10:00:21;;;;;;;;;21.00;17.00;;;;;4.92;77.17;100594.34;5010623;28;45902;-71
2021/12/07 10:02:47;;;;;;;;;16.25;14.50;;;;;5.02;76.81;100614.47;5011165;28;45896;-74
2021/12/07 10:05:16;;;;;;;;;16.25;15.00;;;;;5.12;76.41;100625.94;5010614;28;46063;-74
2021/12/07 10:07:42;;;;;;;;;16.00;13.00;;;;;4.93;76.67;100575.31;5010346;28;45742;-73
2021/12/07 10:10:17;;;;;;;;;15.00;11.50;;;;;5.01;76.71;100588.50;5024687;28;45358;-73
2021/12/07 10:12:43;;;;;;;;;17.75;15.75;;;;;5.14;77.42;100593.09;5010695;28;45401;-72
2021/12/07 10:15:09;;;;;;;;;18.50;14.00;;;;;4.90;77.58;100554.50;5011067;28;45656;-74
2021/12/07 10:17:38;;;;;;;;;16.75;14.50;;;;;5.10;77.48;100565.31;5010628;28;45965;-73
2021/12/07 10:20:32;;;;;;;;;17.00;12.75;;;;;5.28;77.77;100583.00;5010479;28;45851;-72
2021/12/07 10:23:21;;;;;;;;;15.25;15.25;;;;;5.23;77.51;100566.47;5010526;28;45452;-73
2021/12/07 10:25:52;;;;;;;;;11.50;11.25;;;;;5.06;78.16;100534.97;5010180;28;45512;-73
2021/12/07 10:28:38;;;;;;;;;18.50;16.00;;;;;5.27;78.29;100548.38;5009996;28;45739;-72
2021/12/07 10:31:06;;;;;;;;;18.00;14.00;;;;;5.30;77.45;100539.78;5010907;28;45963;-72
2021/12/07 10:33:36;;;;;;;;;14.50;14.25;;;;;5.36;77.89;100524.28;5010606;28;45480;-71
2021/12/07 10:36:29;;;;;;;;;17.00;16.00;;;;;5.36;78.53;100526.91;5010120;28;46025;-73
2021/12/07 10:39:03;;;;;;;;;17.25;16.00;;;;;5.44;77.77;100532.28;5007493;28;46889;-73
2021/12/07 10:41:36;;;;;;;;;20.25;15.25;;;;;5.25;78.18;100474.75;5009610;28;45689;-71
2021/12/07 10:44:31;;;;;;;;;17.75;17.00;;;;;5.45;78.10;100498.50;5010119;28;45536;-72
2021/12/07 10:47:05;;;;;;;;;20.25;15.75;;;;;5.43;78.77;100479.41;5024715;28;45939;-70
2021/12/07 10:49:46;;;;;;;;;18.50;18.50;;;;;5.50;78.48;100486.50;5024352;28;45510;-74
2021/12/07 10:52:34;;;;;;;;;27.25;22.25;;;;;5.48;78.87;100471.72;5010264;28;45831;-72
2021/12/07 10:55:03;;;;;;;;;18.75;17.00;;;;;5.52;78.87;100452.75;5010663;28;45532;-74
2021/12/07 10:57:32;;;;;;;;;17.00;15.00;;;;;5.56;78.18;100443.31;5024430;28;47132;-72
2021/12/07 11:00:23;;;;;;;;;20.50;18.50;;;;;5.60;78.83;100434.69;5009662;28;45546;-71
2021/12/07 11:02:58;;;;;;;;;23.50;20.00;;;;;5.67;77.88;100421.84;5009465;28;45512;-72
2021/12/07 11:05:30;;;;;;;;;22.75;19.75;;;;;5.71;78.76;100409.75;5009752;28;45699;-71
2021/12/07 11:07:57;;;;;;;;;22.00;18.00;;;;;5.66;78.24;100393.22;5009275;28;45645;-71
2021/12/07 11:10:30;;;;;;;;;23.00;19.50;;;;;5.84;78.05;100400.47;5009186;28;45551;-70
2021/12/07 11:13:02;;;;;;;;;19.50;16.25;;;;;5.69;77.78;100349.09;5009713;28;45832;-72
2021/12/07 11:15:31;;;;;;;;;15.00;14.50;;;;;5.86;78.27;100360.66;5009564;28;45770;-71
2021/12/07 11:18:20;;;;;;;;;17.25;15.75;;;;;5.75;77.42;100323.22;5008952;28;45901;-74
2021/12/07 11:20:45;;;;;;;;;21.25;16.75;;;;;6.06;77.88;100347.09;5009830;28;45749;-72
2021/12/07 11:23:16;;;;;;;;;17.00;13.00;;;;;6.11;77.11;100335.88;5012890;28;45689;-72
2021/12/07 11:31:24;;;;;;;;;12.75;10.25;;;;;5.38;77.19;100160.75;5013077;28;45791;-70
2021/12/07 11:33:53;;;;;;;;;10.25;9.00;;;;;6.19;76.91;100296.13;5012996;28;45874;-75
2021/12/07 11:36:29;;;;;;;;;14.00;11.00;;;;;6.03;76.89;100271.66;5013202;28;45413;-73
2021/12/07 11:38:56;;;;;;;;;13.75;12.00;;;;;6.25;77.14;100288.41;5012627;28;46187;-71
2021/12/07 11:41:32;;;;;;;;;13.00;12.25;;;;;5.97;76.70;100216.97;5028251;28;45789;-73
2021/12/07 11:44:03;;;;;;;;;10.25;9.25;;;;;6.08;76.38;100218.84;5013374;28;45802;-71
2021/12/07 11:46:31;;;;;;;;;13.75;9.50;;;;;6.40;76.58;100252.16;5012933;28;45930;-72
2021/12/07 11:49:28;;;;;;;;;17.50;12.00;;;;;6.40;76.05;100248.69;5012546;28;46234;-72
2021/12/07 11:51:57;;;;;;;;;10.00;8.25;;;;;6.44;76.28;100243.53;5007060;28;45878;-71
2021/12/07 11:54:28;;;;;;;;;18.00;9.75;;;;;6.48;76.29;100228.84;5013147;28;45866;-71
2021/12/07 11:56:55;;;;;;;;;13.50;9.00;;;;;6.51;76.44;100208.91;5012856;28;45457;-73
2021/12/07 11:59:20;;;;;;;;;11.25;9.75;;;;;6.56;75.80;100211.56;5012182;28;46003;-72
2021/12/07 12:01:48;;;;;;;;;12.25;8.00;;;;;6.38;75.54;100170.63;5012125;28;45724;-72
2021/12/07 12:04:17;;;;;;;;;16.50;9.25;;;;;6.14;75.54;100109.72;5012301;28;45911;-71
2021/12/07 12:06:46;;;;;;;;;9.75;9.75;;;;;6.62;75.55;100163.91;5012497;28;45924;-73
2021/12/07 12:09:12;;;;;;;;;14.50;9.50;;;;;6.71;74.94;100158.78;5011874;28;45469;-72
2021/12/07 12:11:50;;;;;;;;;7.75;7.50;;;;;6.66;75.50;100163.09;5012406;28;46050;-72
2021/12/07 12:14:46;;;;;;;;;9.75;7.00;;;;;6.59;75.57;100144.81;5012134;28;45738;-72
2021/12/07 12:17:20;;;;;;;;;9.75;8.25;;;;;6.72;75.32;100143.19;5011475;28;45440;-70
2021/12/07 12:19:57;;;;;;;;;13.25;9.25;;;;;6.73;75.70;100138.84;5011836;28;46436;-73
2021/12/07 12:22:42;;;;;;;;;9.00;9.00;;;;;6.74;75.68;100128.47;5012201;28;45632;-70
2021/12/07 12:25:12;;;;;;;;;11.25;8.00;;;;;6.71;75.05;100097.19;5012745;28;45938;-74
2021/12/07 12:27:39;;;;;;;;;10.25;7.25;;;;;6.63;75.18;100074.59;5012880;28;45927;-72
2021/12/07 12:30:29;;;;;;;;;8.00;8.00;;;;;6.88;75.07;100101.66;5012686;28;45717;-71
2021/12/07 12:32:58;;;;;;;;;10.00;8.00;;;;;6.68;74.92;100060.75;5007612;28;45382;-71
2021/12/07 12:35:41;;;;;;;;;8.50;8.00;;;;;6.97;74.34;100079.16;5012084;28;45438;-72
2021/12/07 12:38:25;;;;;;;;;7.00;6.00;;;;;6.80;74.40;100031.31;5013076;28;45554;-72
2021/12/07 12:40:58;;;;;;;;;7.50;5.00;;;;;7.02;74.23;100053.13;5012702;28;46636;-72
2021/12/07 12:43:51;;;;;;;;;8.00;8.00;;;;;7.01;74.36;100035.78;5013690;28;45601;-70
2021/12/07 12:46:27;;;;;;;;;9.00;7.75;;;;;7.00;73.64;100011.50;5013578;28;45494;-71
2021/12/07 12:48:59;;;;;;;;;8.00;7.00;;;;;7.00;73.65;100010.63;5014953;28;45356;-72
2021/12/07 12:51:30;;;;;;;;;7.00;7.00;;;;;7.15;73.60;99994.19;5014335;28;45724;-72
2021/12/07 12:53:57;;;;;;;;;8.25;7.75;;;;;7.12;73.69;99978.53;5014243;28;45458;-74
2021/12/07 12:56:30;;;;;;;;;6.25;6.25;;;;;6.93;72.86;99947.25;5014638;28;45513;-72
2021/12/07 12:59:00;;;;;;;;;7.25;5.50;;;;;7.09;73.35;99955.97;5015146;28;45449;-72
2021/12/07 13:01:31;;;;;;;;;8.25;5.75;;;;;7.17;73.19;99956.88;5015012;28;45446;-74
2021/12/07 13:03:57;;;;;;;;;9.75;6.00;;;;;7.19;73.28;99955.16;5014423;28;45622;-75
2021/12/07 13:06:26;;;;;;;;;6.25;6.25;;;;;7.09;72.86;99947.28;5013979;28;45471;-76
2021/12/07 13:08:57;;;;;;;;;9.50;4.00;;;;;7.18;72.37;99971.63;5011301;28;45758;-75
2021/12/07 13:11:36;;;;;;;;;8.50;5.50;;;;;7.13;72.58;99949.91;5011201;28;46370;-73
2021/12/07 13:14:04;;;;;;;;;11.00;5.50;;;;;7.06;72.63;99937.72;5011534;28;45817;-75
2021/12/07 13:16:33;;;;;;;;;6.00;5.25;;;;;7.19;72.33;99951.69;5011648;28;45829;-73